M/V Lady Of Prompt Succor — WDD9441 — position and weather

sailwx.info

Track history (hours):
 
Tides and Currents Weather Stations Pressure Air Temp Water Temp Dewpoint Dewpoint Depression Visibility Wind Speed Wind Dir Waves Ship Positions

M/V Lady Of Prompt Succor

Owner: Marquette Transportation Company Gulf-Inland, LLC, Jefferson, LA. More information available from US FCC via Universal Licensing System and Coast Guard Vessel Documentation Center.

Last reported at 2018-Jan-20 04:52 UTC. Time now 2018-Jan-20 23:12 UTC.
Position N 29°32' W 094°54'.

Length 22 m; draft 2.7 m.

Type: Towing. MMSI: 367311490.

Date/timePositionNaut miles runAvg speedWind from/ knotsBaromVisibWave heightAir tempDewpointWater temp
2018-Jan-20 04:52N 29°32' W 094°54'2 6.8
2018-Jan-20 04:30N 29°34' W 094°56'3 6.9
2018-Jan-20 04:00N 29°37' W 094°58'3 6.9
2018-Jan-20 03:30N 29°41' W 094°59'7 0.5
2018-Jan-19 12:50N 29°46' W 095°06'2 3.0
2018-Jan-19 12:17N 29°45' W 095°04'3 5.5
2018-Jan-19 11:44N 29°43' W 095°01'1 5.4
2018-Jan-19 11:30N 29°42' W 095°00'3 6.4
2018-Jan-19 10:59N 29°39' W 094°58'3 6.7
2018-Jan-19 10:30N 29°36' W 094°57'3 6.8
2018-Jan-19 10:00N 29°33' W 094°55'  
Track history (hours):
 
Tides and Currents Weather Stations Pressure Air Temp Water Temp Dewpoint Dewpoint Depression Visibility Wind Speed Wind Dir Waves Ship Positions

M/V Lady Of Prompt Succor

Owner: Marquette Transportation Company Gulf-Inland, LLC, Jefferson, LA. More information available from US FCC via Universal Licensing System and Coast Guard Vessel Documentation Center.

Last reported at 2018-Jan-20 04:52 UTC. Time now 2018-Jan-20 23:12 UTC.
Position N 29°32' W 094°54'.

Length 22 m; draft 2.7 m.

Type: Towing. MMSI: 367311490.

Date/timePositionNaut miles runAvg speedWind from/ knotsBaromVisibWave heightAir tempDewpointWater temp
2018-Jan-20 04:52N 29°32' W 094°54'2 6.8
2018-Jan-20 04:30N 29°34' W 094°56'3 6.9
2018-Jan-20 04:00N 29°37' W 094°58'3 6.9
2018-Jan-20 03:30N 29°41' W 094°59'7 0.5
2018-Jan-19 12:50N 29°46' W 095°06'2 3.0
2018-Jan-19 12:17N 29°45' W 095°04'3 5.5
2018-Jan-19 11:44N 29°43' W 095°01'1 5.4
2018-Jan-19 11:30N 29°42' W 095°00'3 6.4
2018-Jan-19 10:59N 29°39' W 094°58'3 6.7
2018-Jan-19 10:30N 29°36' W 094°57'3 6.8
2018-Jan-19 10:00N 29°33' W 094°55'  

Dump ship's entire track history